createdAt,value
2018-10-19T00:00:02.743Z,21.92
2018-10-19T00:00:40.171Z,21.93
2018-10-19T00:01:17.680Z,21.93
2018-10-19T00:01:55.188Z,21.91
2018-10-19T00:02:32.761Z,21.93
2018-10-19T00:03:10.379Z,21.92
2018-10-19T00:03:47.724Z,21.92
2018-10-19T00:04:25.244Z,21.92
2018-10-19T00:05:02.774Z,21.93
2018-10-19T00:05:40.222Z,21.91
2018-10-19T00:06:17.689Z,21.92
2018-10-19T00:06:55.184Z,21.93
2018-10-19T00:07:32.659Z,21.92
2018-10-19T00:08:10.201Z,21.91
2018-10-19T00:08:47.705Z,21.93
2018-10-19T00:09:25.233Z,21.92
2018-10-19T00:10:02.792Z,21.91
2018-10-19T00:10:40.246Z,21.91
2018-10-19T00:11:17.646Z,21.91
2018-10-19T00:11:55.227Z,21.92
2018-10-19T00:12:32.641Z,21.92
2018-10-19T00:13:10.037Z,21.91
2018-10-19T00:13:47.575Z,21.91
2018-10-19T00:14:25.166Z,21.91
2018-10-19T00:15:02.790Z,21.92
2018-10-19T00:15:44.104Z,21.91
2018-10-19T00:16:21.614Z,21.91
2018-10-19T00:16:59.089Z,21.90
2018-10-19T00:17:36.682Z,21.91
2018-10-19T00:18:14.140Z,21.90
2018-10-19T00:18:51.713Z,21.91
2018-10-19T00:19:29.193Z,21.90
2018-10-19T00:20:06.690Z,21.91
2018-10-19T00:20:44.135Z,21.90
2018-10-19T00:21:21.749Z,21.91
2018-10-19T00:21:59.152Z,21.91
2018-10-19T00:22:36.722Z,21.92
2018-10-19T00:23:14.185Z,21.90
2018-10-19T00:23:51.629Z,21.91
2018-10-19T00:24:29.185Z,21.90
2018-10-19T00:25:06.649Z,21.91
2018-10-19T00:25:44.276Z,21.91
2018-10-19T00:26:25.870Z,21.91
2018-10-19T00:27:03.522Z,21.91
2018-10-19T00:27:40.849Z,21.91
2018-10-19T00:28:18.277Z,21.90
2018-10-19T00:28:55.689Z,21.90
2018-10-19T00:29:33.198Z,21.91
2018-10-19T00:30:10.754Z,21.90
2018-10-19T00:30:48.213Z,21.90
2018-10-19T00:31:25.697Z,21.91
2018-10-19T00:32:03.125Z,21.90
2018-10-19T00:32:40.606Z,21.91
2018-10-19T00:33:18.196Z,21.90
2018-10-19T00:33:55.848Z,21.91
2018-10-19T00:34:36.738Z,21.90
2018-10-19T00:35:14.313Z,21.90
2018-10-19T00:35:51.708Z,21.90
2018-10-19T00:36:29.249Z,21.90
2018-10-19T00:37:06.630Z,21.89
2018-10-19T00:37:44.015Z,21.89
2018-10-19T00:38:21.512Z,21.90
2018-10-19T00:38:59.196Z,21.90
2018-10-19T00:39:36.661Z,21.89
2018-10-19T00:40:14.067Z,21.90
2018-10-19T00:40:51.610Z,21.89
2018-10-19T00:41:29.003Z,21.90
2018-10-19T00:42:06.730Z,21.90
2018-10-19T00:42:44.135Z,21.90
2018-10-19T00:43:21.686Z,21.90
2018-10-19T00:43:59.272Z,21.88
2018-10-19T00:44:36.929Z,21.90
2018-10-19T00:45:14.285Z,21.90
2018-10-19T00:45:51.778Z,21.90
2018-10-19T00:46:29.284Z,21.89
2018-10-19T00:47:06.932Z,21.90
2018-10-19T00:47:44.435Z,21.89
2018-10-19T00:48:21.917Z,21.89
2018-10-19T00:48:59.370Z,21.90
2018-10-19T00:49:36.871Z,21.87
2018-10-19T00:50:14.421Z,21.89
2018-10-19T00:50:51.930Z,21.90
2018-10-19T00:51:29.450Z,21.89
2018-10-19T00:52:06.984Z,21.90
2018-10-19T00:52:44.513Z,21.90
2018-10-19T00:53:21.933Z,21.90
2018-10-19T00:53:59.357Z,21.89
2018-10-19T00:54:36.888Z,21.90
2018-10-19T00:55:14.533Z,21.89
2018-10-19T00:55:51.968Z,21.89
2018-10-19T00:56:29.595Z,21.89
2018-10-19T00:57:07.049Z,21.88
2018-10-19T00:57:44.445Z,21.89
2018-10-19T00:58:21.893Z,21.89
2018-10-19T00:58:59.462Z,21.89
2018-10-19T00:59:36.840Z,21.89
2018-10-19T01:00:14.367Z,21.89
2018-10-19T01:00:51.825Z,21.88
2018-10-19T01:01:29.320Z,21.89
2018-10-19T01:02:06.850Z,21.89
2018-10-19T01:02:44.314Z,21.88
2018-10-19T01:03:21.853Z,21.88
2018-10-19T01:03:59.370Z,21.90
2018-10-19T01:04:36.900Z,21.89
2018-10-19T01:05:14.491Z,21.88
2018-10-19T01:05:52.050Z,21.88
2018-10-19T01:06:29.524Z,21.88
2018-10-19T01:07:07.199Z,21.88
2018-10-19T01:07:44.718Z,21.88
2018-10-19T01:08:22.226Z,21.88
2018-10-19T01:08:59.809Z,21.88
2018-10-19T01:09:37.270Z,21.88
2018-10-19T01:10:14.709Z,21.87
2018-10-19T01:10:52.390Z,21.86
2018-10-19T01:11:29.766Z,21.88
2018-10-19T01:12:07.287Z,21.87
2018-10-19T01:12:44.873Z,21.87
2018-10-19T01:13:22.564Z,21.87
2018-10-19T01:14:00.010Z,21.88
2018-10-19T01:14:37.514Z,21.87
2018-10-19T01:15:15.047Z,21.88
2018-10-19T01:15:52.692Z,21.86
2018-10-19T01:16:30.396Z,21.88
2018-10-19T01:17:07.909Z,21.86
2018-10-19T01:17:45.443Z,21.86
2018-10-19T01:18:22.990Z,21.87
2018-10-19T01:19:00.469Z,21.86
2018-10-19T01:19:38.069Z,21.86
2018-10-19T01:20:15.593Z,21.86
2018-10-19T01:20:53.102Z,21.87
2018-10-19T01:21:30.658Z,21.86
2018-10-19T01:22:08.090Z,21.86
2018-10-19T01:22:45.561Z,21.85
2018-10-19T01:23:23.193Z,21.86
2018-10-19T01:24:00.632Z,21.86
2018-10-19T01:24:38.120Z,21.85
2018-10-19T01:25:15.630Z,21.86
2018-10-19T01:25:53.133Z,21.87
2018-10-19T01:26:30.707Z,21.87
2018-10-19T01:27:08.329Z,21.87
2018-10-19T01:27:45.754Z,21.86
2018-10-19T01:28:23.230Z,21.86
2018-10-19T01:29:00.796Z,21.85
2018-10-19T01:29:38.437Z,21.84
2018-10-19T01:30:16.035Z,21.85
2018-10-19T01:30:53.466Z,21.85
2018-10-19T01:31:30.928Z,21.88
2018-10-19T01:32:08.309Z,21.85
2018-10-19T01:32:45.773Z,21.87
2018-10-19T01:33:23.291Z,21.85
2018-10-19T01:34:00.862Z,21.86
2018-10-19T01:34:42.286Z,21.86
2018-10-19T01:35:19.774Z,21.86
2018-10-19T01:35:57.312Z,21.85
2018-10-19T01:36:34.989Z,21.85
2018-10-19T01:37:12.445Z,21.85
2018-10-19T01:37:49.982Z,21.85
2018-10-19T01:38:27.517Z,21.85
2018-10-19T01:39:05.082Z,21.85
2018-10-19T01:39:42.628Z,21.85
2018-10-19T01:40:20.327Z,21.85
2018-10-19T01:40:57.848Z,21.86
2018-10-19T01:41:35.295Z,21.86
2018-10-19T01:42:12.806Z,21.85
2018-10-19T01:42:50.261Z,21.84
2018-10-19T01:43:27.717Z,21.85
2018-10-19T01:44:05.172Z,21.85
2018-10-19T01:44:42.690Z,21.85
2018-10-19T01:45:20.194Z,21.85
2018-10-19T01:45:57.605Z,21.85
2018-10-19T01:46:35.164Z,21.86
2018-10-19T01:47:12.731Z,21.85
2018-10-19T01:47:50.237Z,21.85
2018-10-19T01:48:27.687Z,21.85
2018-10-19T01:49:05.296Z,21.85
2018-10-19T01:49:42.743Z,21.86
2018-10-19T01:50:20.196Z,21.85
2018-10-19T01:50:57.912Z,21.85
2018-10-19T01:51:35.376Z,21.84
2018-10-19T01:52:12.811Z,21.85
2018-10-19T01:52:50.203Z,21.84
2018-10-19T01:53:27.890Z,21.85
2018-10-19T01:54:05.356Z,21.84
2018-10-19T01:54:42.811Z,21.84
2018-10-19T01:55:20.241Z,21.84
2018-10-19T01:55:57.751Z,21.84
2018-10-19T01:56:35.428Z,21.85
2018-10-19T01:57:13.138Z,21.85
2018-10-19T01:57:50.725Z,21.84
2018-10-19T01:58:28.305Z,21.84
2018-10-19T01:59:05.798Z,21.85
2018-10-19T01:59:43.309Z,21.84
2018-10-19T02:00:20.809Z,21.84
2018-10-19T02:00:58.277Z,21.84
2018-10-19T02:01:35.800Z,21.85
2018-10-19T02:02:13.355Z,21.84
2018-10-19T02:02:50.768Z,21.83
2018-10-19T02:03:28.193Z,21.83
2018-10-19T02:04:05.705Z,21.83
2018-10-19T02:04:43.203Z,21.83
2018-10-19T02:05:20.639Z,21.84
2018-10-19T02:05:58.190Z,21.84
2018-10-19T02:06:35.598Z,21.84
2018-10-19T02:07:13.069Z,21.83
2018-10-19T02:07:50.585Z,21.84
2018-10-19T02:08:28.145Z,21.84
2018-10-19T02:09:05.847Z,21.83
2018-10-19T02:09:43.266Z,21.84
2018-10-19T02:10:20.981Z,21.84
2018-10-19T02:10:58.274Z,21.82
2018-10-19T02:11:35.855Z,21.83
2018-10-19T02:12:13.309Z,21.83
2018-10-19T02:12:50.832Z,21.83
2018-10-19T02:13:28.397Z,21.85
2018-10-19T02:14:05.961Z,21.84
2018-10-19T02:14:43.539Z,21.83
2018-10-19T02:15:21.027Z,21.83
2018-10-19T02:15:58.441Z,21.83
2018-10-19T02:16:35.990Z,21.83
2018-10-19T02:17:13.484Z,21.83
2018-10-19T02:17:50.813Z,21.83
2018-10-19T02:18:28.424Z,21.83
2018-10-19T02:19:05.881Z,21.83
2018-10-19T02:19:43.483Z,21.83
2018-10-19T02:20:20.992Z,21.83
2018-10-19T02:20:58.539Z,21.83
2018-10-19T02:21:36.099Z,21.82
2018-10-19T02:22:13.628Z,21.82
2018-10-19T02:22:51.086Z,21.83
2018-10-19T02:23:28.554Z,21.83
2018-10-19T02:24:06.168Z,21.83
2018-10-19T02:24:43.833Z,21.83
2018-10-19T02:25:21.491Z,21.83
2018-10-19T02:25:59.104Z,21.82
2018-10-19T02:26:36.534Z,21.82
2018-10-19T02:27:14.021Z,21.82
2018-10-19T02:27:51.473Z,21.82
2018-10-19T02:28:29.029Z,21.83
2018-10-19T02:29:06.718Z,21.83
2018-10-19T02:29:44.198Z,21.82
2018-10-19T02:30:21.744Z,21.83
2018-10-19T02:30:59.205Z,21.82
2018-10-19T02:31:36.875Z,21.82
2018-10-19T02:32:14.198Z,21.82
2018-10-19T02:32:51.807Z,21.82
2018-10-19T02:33:29.232Z,21.82
2018-10-19T02:34:06.757Z,21.83
2018-10-19T02:35:27.058Z,21.82
2018-10-19T02:36:04.691Z,21.82
2018-10-19T02:36:42.213Z,21.82
2018-10-19T02:37:19.849Z,21.81
2018-10-19T02:37:57.366Z,21.82
2018-10-19T02:38:34.785Z,21.82
2018-10-19T02:39:12.449Z,21.82
2018-10-19T02:39:53.527Z,21.82
2018-10-19T02:40:31.059Z,21.82
2018-10-19T02:41:08.627Z,21.81
2018-10-19T02:41:46.339Z,21.81
2018-10-19T02:42:23.798Z,21.81
2018-10-19T02:43:01.367Z,21.82
2018-10-19T02:43:38.853Z,21.81
2018-10-19T02:44:16.253Z,21.82
2018-10-19T02:45:33.230Z,21.82
2018-10-19T02:46:10.609Z,21.81
2018-10-19T02:46:48.233Z,21.82
2018-10-19T02:47:25.666Z,21.82
2018-10-19T02:48:03.194Z,21.82
2018-10-19T02:48:40.824Z,21.82
2018-10-19T02:49:18.402Z,21.82
2018-10-19T02:49:55.810Z,21.81
2018-10-19T02:50:33.337Z,21.80
2018-10-19T02:51:10.925Z,21.81
2018-10-19T02:51:48.310Z,21.82
2018-10-19T02:52:25.870Z,21.81
2018-10-19T02:53:03.480Z,21.80
2018-10-19T02:53:41.183Z,21.80
2018-10-19T02:54:18.673Z,21.81
2018-10-19T02:54:56.064Z,21.81
2018-10-19T02:55:37.304Z,21.81
2018-10-19T02:56:14.920Z,21.80
2018-10-19T02:56:52.582Z,21.80
2018-10-19T02:57:29.982Z,21.81
2018-10-19T02:58:07.485Z,21.81
2018-10-19T02:58:45.030Z,21.81
2018-10-19T02:59:22.429Z,21.80
2018-10-19T02:59:59.838Z,21.81
2018-10-19T03:00:37.399Z,21.81
2018-10-19T03:01:14.895Z,21.81
2018-10-19T03:01:52.485Z,21.81
2018-10-19T03:02:29.965Z,21.80
2018-10-19T03:03:07.511Z,21.81
2018-10-19T03:04:28.738Z,21.80
2018-10-19T03:05:06.315Z,21.80
2018-10-19T03:05:43.857Z,21.80
2018-10-19T03:06:21.415Z,21.80
2018-10-19T03:06:58.782Z,21.80
2018-10-19T03:07:36.155Z,21.80
2018-10-19T03:08:13.541Z,21.80
2018-10-19T03:08:51.082Z,21.80
2018-10-19T03:09:31.838Z,21.80
2018-10-19T03:10:09.297Z,21.80
2018-10-19T03:10:46.847Z,21.79
2018-10-19T03:11:24.496Z,21.80
2018-10-19T03:12:02.064Z,21.80
2018-10-19T03:12:39.515Z,21.79
2018-10-19T03:13:17.149Z,21.80
2018-10-19T03:13:54.708Z,21.79
2018-10-19T03:14:32.149Z,21.80
2018-10-19T03:15:09.738Z,21.79
2018-10-19T03:15:47.104Z,21.80
2018-10-19T03:16:24.763Z,21.80
2018-10-19T03:17:02.357Z,21.79
2018-10-19T03:17:39.720Z,21.80
2018-10-19T03:18:17.266Z,21.79
2018-10-19T03:18:54.750Z,21.79
2018-10-19T03:19:32.193Z,21.79
2018-10-19T03:20:09.703Z,21.80
2018-10-19T03:20:47.108Z,21.79
2018-10-19T03:21:24.587Z,21.79
2018-10-19T03:22:02.130Z,21.79
2018-10-19T03:22:39.661Z,21.79
2018-10-19T03:23:17.162Z,21.79
2018-10-19T03:23:54.550Z,21.78
2018-10-19T03:24:32.076Z,21.79
2018-10-19T03:25:09.476Z,21.79
2018-10-19T03:25:47.190Z,21.79
2018-10-19T03:26:24.653Z,21.79
2018-10-19T03:27:02.151Z,21.80
2018-10-19T03:27:39.500Z,21.79
2018-10-19T03:28:17.090Z,21.79
2018-10-19T03:28:54.662Z,21.79
2018-10-19T03:29:32.151Z,21.80
2018-10-19T03:30:09.697Z,21.80
2018-10-19T03:30:47.330Z,21.79
2018-10-19T03:31:24.743Z,21.78
2018-10-19T03:32:02.374Z,21.80
2018-10-19T03:32:39.877Z,21.78
2018-10-19T03:33:17.568Z,21.79
2018-10-19T03:33:54.989Z,21.78
2018-10-19T03:34:32.409Z,21.78
2018-10-19T03:35:09.949Z,21.78
2018-10-19T03:35:47.638Z,21.78
2018-10-19T03:36:25.226Z,21.78
2018-10-19T03:37:02.662Z,21.77
2018-10-19T03:37:40.041Z,21.79
2018-10-19T03:38:17.605Z,21.79
2018-10-19T03:38:55.130Z,21.78
2018-10-19T03:39:32.692Z,21.78
2018-10-19T03:40:10.103Z,21.77
2018-10-19T03:40:47.696Z,21.78
2018-10-19T03:41:25.104Z,21.79
2018-10-19T03:42:02.621Z,21.78
2018-10-19T03:42:40.129Z,21.78
2018-10-19T03:43:17.551Z,21.78
2018-10-19T03:43:55.132Z,21.79
2018-10-19T03:44:32.651Z,21.78
2018-10-19T03:45:10.271Z,21.78
2018-10-19T03:45:47.842Z,21.78
2018-10-19T03:46:25.234Z,21.78
2018-10-19T03:47:02.728Z,21.78
2018-10-19T03:47:40.347Z,21.79
2018-10-19T03:48:17.860Z,21.78
2018-10-19T03:48:55.344Z,21.78
2018-10-19T03:49:32.774Z,21.78
2018-10-19T03:50:10.257Z,21.76
2018-10-19T03:50:47.929Z,21.79
2018-10-19T03:51:25.465Z,21.78
2018-10-19T03:52:02.953Z,21.77
2018-10-19T03:52:40.544Z,21.78
2018-10-19T03:53:18.148Z,21.77
2018-10-19T03:53:55.761Z,21.78
2018-10-19T03:54:33.463Z,21.78
2018-10-19T03:55:10.961Z,21.78
2018-10-19T03:55:48.491Z,21.78
2018-10-19T03:56:26.020Z,21.78
2018-10-19T03:57:03.579Z,21.78
2018-10-19T03:57:41.094Z,21.77
2018-10-19T03:58:18.631Z,21.77
2018-10-19T03:58:56.235Z,21.77
2018-10-19T03:59:33.682Z,21.76
2018-10-19T04:00:11.079Z,21.77
2018-10-19T04:00:48.614Z,21.77
2018-10-19T04:01:26.151Z,21.77
2018-10-19T04:02:03.716Z,21.77
2018-10-19T04:02:41.114Z,21.77
2018-10-19T04:03:18.813Z,21.78
2018-10-19T04:03:56.163Z,21.77
2018-10-19T04:04:33.613Z,21.77
2018-10-19T04:05:11.256Z,21.77
2018-10-19T04:05:48.723Z,21.77
2018-10-19T04:06:26.247Z,21.77
2018-10-19T04:07:03.787Z,21.77
2018-10-19T04:07:41.297Z,21.78
2018-10-19T04:08:18.819Z,21.77
2018-10-19T04:08:56.286Z,21.77
2018-10-19T04:09:33.804Z,21.77
2018-10-19T04:10:11.258Z,21.77
2018-10-19T04:10:48.714Z,21.77
2018-10-19T04:11:26.249Z,21.77
2018-10-19T04:12:03.843Z,21.78
2018-10-19T04:12:41.431Z,21.77
2018-10-19T04:13:18.955Z,21.77
2018-10-19T04:13:56.347Z,21.77
2018-10-19T04:14:37.674Z,21.77
2018-10-19T04:15:15.244Z,21.75
2018-10-19T04:15:52.517Z,21.76
2018-10-19T04:16:30.001Z,21.76
2018-10-19T04:17:07.682Z,21.77
2018-10-19T04:17:45.130Z,21.76
2018-10-19T04:18:22.560Z,21.76
2018-10-19T04:19:00.216Z,21.76
2018-10-19T04:19:37.615Z,21.76
2018-10-19T04:20:15.087Z,21.77
2018-10-19T04:20:52.565Z,21.77
2018-10-19T04:21:30.221Z,21.77
2018-10-19T04:22:07.626Z,21.77
2018-10-19T04:22:45.155Z,21.76
2018-10-19T04:23:22.638Z,21.76
2018-10-19T04:24:00.234Z,21.76
2018-10-19T04:24:37.682Z,21.75
2018-10-19T04:25:15.170Z,21.75
2018-10-19T04:25:52.695Z,21.76
2018-10-19T04:26:30.264Z,21.76
2018-10-19T04:27:07.771Z,21.76
2018-10-19T04:27:45.300Z,21.76
2018-10-19T04:28:22.702Z,21.75
2018-10-19T04:29:00.116Z,21.76
2018-10-19T04:29:37.620Z,21.75
2018-10-19T04:30:15.108Z,21.75
2018-10-19T04:30:52.646Z,21.76
2018-10-19T04:31:30.129Z,21.75
2018-10-19T04:32:07.677Z,21.75
2018-10-19T04:32:45.255Z,21.77
2018-10-19T04:33:22.666Z,21.75
2018-10-19T04:34:00.194Z,21.76
2018-10-19T04:34:37.852Z,21.74
2018-10-19T04:35:15.393Z,21.75
2018-10-19T04:35:52.706Z,21.75
2018-10-19T04:36:30.078Z,21.75
2018-10-19T04:37:07.520Z,21.75
2018-10-19T04:37:44.991Z,21.75
2018-10-19T04:38:22.525Z,21.75
2018-10-19T04:39:00.025Z,21.74
2018-10-19T04:39:37.426Z,21.74
2018-10-19T04:40:14.880Z,21.75
2018-10-19T04:41:35.883Z,21.75
2018-10-19T04:42:13.289Z,21.74
2018-10-19T04:42:50.764Z,21.75
2018-10-19T04:43:28.165Z,21.75
2018-10-19T04:44:05.608Z,21.74
2018-10-19T04:44:43.110Z,21.75
2018-10-19T04:45:20.538Z,21.75
2018-10-19T04:46:41.234Z,21.75
2018-10-19T04:47:18.760Z,21.75
2018-10-19T04:47:56.275Z,21.74
2018-10-19T04:48:33.689Z,21.74
2018-10-19T04:49:11.225Z,21.74
2018-10-19T04:49:48.752Z,21.75
2018-10-19T04:50:26.342Z,21.74
2018-10-19T04:51:03.886Z,21.74
2018-10-19T04:51:41.411Z,21.75
2018-10-19T04:52:18.854Z,21.75
2018-10-19T04:52:56.464Z,21.74
2018-10-19T04:53:33.984Z,21.74
2018-10-19T04:54:11.341Z,21.74
2018-10-19T04:54:48.987Z,21.74
2018-10-19T04:55:26.562Z,21.74
2018-10-19T04:56:04.181Z,21.74
2018-10-19T04:56:41.649Z,21.74
2018-10-19T04:57:19.294Z,21.73
2018-10-19T04:57:56.822Z,21.73
2018-10-19T04:58:34.370Z,21.73
2018-10-19T04:59:11.895Z,21.74
2018-10-19T04:59:49.382Z,21.75
2018-10-19T05:00:26.928Z,21.74
2018-10-19T05:01:47.003Z,21.74
2018-10-19T05:02:24.384Z,21.74
2018-10-19T05:03:01.843Z,21.73
2018-10-19T05:03:39.306Z,21.73
2018-10-19T05:04:16.767Z,21.73
2018-10-19T05:04:54.376Z,21.73
2018-10-19T05:05:31.873Z,21.73
2018-10-19T05:06:09.393Z,21.73
2018-10-19T05:06:46.860Z,21.73
2018-10-19T05:07:24.362Z,21.73
2018-10-19T05:08:01.827Z,21.74
2018-10-19T05:08:39.273Z,21.73
2018-10-19T05:09:16.710Z,21.73
2018-10-19T05:09:54.293Z,21.73
2018-10-19T05:10:31.979Z,21.73
2018-10-19T05:11:09.583Z,21.73
2018-10-19T05:11:47.055Z,21.74
2018-10-19T05:12:24.441Z,21.73
2018-10-19T05:13:02.163Z,21.74
2018-10-19T05:13:39.886Z,21.73
2018-10-19T05:14:17.392Z,21.73
2018-10-19T05:14:54.974Z,21.73
2018-10-19T05:15:32.443Z,21.73
2018-10-19T05:16:09.998Z,21.73
2018-10-19T05:16:47.593Z,21.73
2018-10-19T05:17:25.018Z,21.73
2018-10-19T05:18:02.501Z,21.72
2018-10-19T05:18:39.881Z,21.73
2018-10-19T05:19:17.436Z,21.73
2018-10-19T05:19:54.931Z,21.73
2018-10-19T05:20:32.488Z,21.72
2018-10-19T05:21:09.939Z,21.72
2018-10-19T05:21:47.493Z,21.73
2018-10-19T05:22:25.069Z,21.73
2018-10-19T05:23:02.481Z,21.73
2018-10-19T05:23:40.025Z,21.73
2018-10-19T05:24:17.672Z,21.73
2018-10-19T05:24:55.315Z,21.73
2018-10-19T05:25:32.718Z,21.73
2018-10-19T05:26:10.308Z,21.72
2018-10-19T05:26:47.817Z,21.72
2018-10-19T05:27:25.357Z,21.72
2018-10-19T05:28:02.915Z,21.72
2018-10-19T05:28:40.338Z,21.72
2018-10-19T05:29:17.977Z,21.72
2018-10-19T05:29:55.465Z,21.72
2018-10-19T05:30:33.001Z,21.71
2018-10-19T05:31:10.393Z,21.71
2018-10-19T05:31:47.951Z,21.72
2018-10-19T05:32:25.500Z,21.71
2018-10-19T05:33:03.057Z,21.71
2018-10-19T05:33:40.609Z,21.71
2018-10-19T05:34:17.957Z,21.72
2018-10-19T05:34:55.444Z,21.72
2018-10-19T05:35:32.828Z,21.72
2018-10-19T05:36:10.406Z,21.71
2018-10-19T05:36:47.885Z,21.71
2018-10-19T05:37:25.397Z,21.72
2018-10-19T05:38:02.975Z,21.72
2018-10-19T05:38:40.508Z,21.72
2018-10-19T05:39:17.892Z,21.71
2018-10-19T05:39:55.325Z,21.72
2018-10-19T05:40:32.850Z,21.70
2018-10-19T05:41:10.572Z,21.71
2018-10-19T05:41:48.236Z,21.71
2018-10-19T05:42:25.660Z,21.72
2018-10-19T05:43:03.281Z,21.71
2018-10-19T05:43:40.931Z,21.70
2018-10-19T05:44:18.462Z,21.71
2018-10-19T05:44:55.966Z,21.70
2018-10-19T05:45:33.521Z,21.71
2018-10-19T05:46:10.956Z,21.71
2018-10-19T05:46:48.520Z,21.70
2018-10-19T05:47:26.135Z,21.71
2018-10-19T05:48:03.664Z,21.71
2018-10-19T05:48:41.150Z,21.71
2018-10-19T05:49:18.757Z,21.71
2018-10-19T05:49:56.237Z,21.72
2018-10-19T05:50:33.611Z,21.71
2018-10-19T05:51:11.195Z,21.70
2018-10-19T05:51:48.776Z,21.72
2018-10-19T05:52:26.187Z,21.71
2018-10-19T05:53:03.703Z,21.71
2018-10-19T05:53:41.280Z,21.71
2018-10-19T05:54:18.727Z,21.70
2018-10-19T05:54:56.160Z,21.70
2018-10-19T05:55:33.584Z,21.70
2018-10-19T05:56:11.113Z,21.70
2018-10-19T05:56:48.666Z,21.70
2018-10-19T05:57:26.149Z,21.70
2018-10-19T05:58:03.512Z,21.71
2018-10-19T05:58:40.980Z,21.72
2018-10-19T05:59:18.483Z,21.71
2018-10-19T05:59:55.867Z,21.71
2018-10-19T06:00:33.307Z,21.70
2018-10-19T06:01:14.465Z,21.71
2018-10-19T06:01:51.947Z,21.69
2018-10-19T06:02:29.587Z,21.69
2018-10-19T06:03:06.945Z,21.70
2018-10-19T06:03:44.521Z,21.70
2018-10-19T06:04:22.180Z,21.70
2018-10-19T06:04:59.702Z,21.70
2018-10-19T06:05:37.125Z,21.70
2018-10-19T06:06:58.186Z,21.71
2018-10-19T06:07:35.623Z,21.70
2018-10-19T06:08:13.151Z,21.70
2018-10-19T06:08:50.592Z,21.70
2018-10-19T06:09:28.151Z,21.71
2018-10-19T06:10:05.718Z,21.70
2018-10-19T06:10:43.221Z,21.70
2018-10-19T06:11:20.743Z,21.71
2018-10-19T06:11:58.245Z,21.70
2018-10-19T06:12:35.834Z,21.70
2018-10-19T06:13:13.410Z,21.70
2018-10-19T06:13:50.884Z,21.71
2018-10-19T06:14:28.303Z,21.70
2018-10-19T06:15:05.719Z,21.70
2018-10-19T06:15:43.269Z,21.69
2018-10-19T06:16:20.762Z,21.70
2018-10-19T06:16:58.373Z,21.69
2018-10-19T06:17:39.165Z,21.68
2018-10-19T06:18:16.634Z,21.71
2018-10-19T06:18:54.205Z,21.69
2018-10-19T06:19:31.710Z,21.70
2018-10-19T06:20:09.288Z,21.70
2018-10-19T06:20:46.753Z,21.69
2018-10-19T06:21:24.336Z,21.69
2018-10-19T06:22:01.761Z,21.69
2018-10-19T06:22:43.369Z,21.70
2018-10-19T06:23:20.955Z,21.69
2018-10-19T06:23:58.403Z,21.69
2018-10-19T06:24:35.834Z,21.69
2018-10-19T06:25:13.474Z,21.69
2018-10-19T06:25:50.974Z,21.70
2018-10-19T06:26:28.529Z,21.69
2018-10-19T06:27:06.047Z,21.69
2018-10-19T06:27:43.523Z,21.69
2018-10-19T06:28:21.091Z,21.69
2018-10-19T06:28:58.549Z,21.69
2018-10-19T06:29:36.057Z,21.69
2018-10-19T06:30:13.611Z,21.69
2018-10-19T06:30:51.266Z,21.69
2018-10-19T06:31:28.745Z,21.69
2018-10-19T06:32:06.127Z,21.69
2018-10-19T06:32:43.553Z,21.69
2018-10-19T06:33:21.175Z,21.68
2018-10-19T06:33:58.665Z,21.69
2018-10-19T06:34:36.097Z,21.69
2018-10-19T06:35:56.401Z,21.70
2018-10-19T06:36:33.862Z,21.69
2018-10-19T06:37:11.253Z,21.70
2018-10-19T06:37:48.845Z,21.70
2018-10-19T06:38:26.262Z,21.69
2018-10-19T06:39:03.773Z,21.68
2018-10-19T06:39:41.331Z,21.69
2018-10-19T06:40:18.753Z,21.69
2018-10-19T06:40:56.321Z,21.69
2018-10-19T06:41:33.718Z,21.69
2018-10-19T06:42:11.327Z,21.69
2018-10-19T06:42:48.764Z,21.69
2018-10-19T06:43:26.268Z,21.69
2018-10-19T06:44:03.916Z,21.69
2018-10-19T06:44:41.426Z,21.70
2018-10-19T06:45:18.990Z,21.70
2018-10-19T06:45:56.645Z,21.68
2018-10-19T06:46:34.115Z,21.68
2018-10-19T06:47:11.734Z,21.69
2018-10-19T06:47:49.234Z,21.70
2018-10-19T06:48:26.769Z,21.69
2018-10-19T06:49:04.366Z,21.69
2018-10-19T06:49:41.999Z,21.70
2018-10-19T06:50:19.536Z,21.69
2018-10-19T06:50:57.006Z,21.68
2018-10-19T06:51:34.470Z,21.70
2018-10-19T06:52:11.932Z,21.69
2018-10-19T06:52:49.471Z,21.68
2018-10-19T06:53:27.083Z,21.70
2018-10-19T06:54:04.810Z,21.69
2018-10-19T06:54:42.248Z,21.70
2018-10-19T06:55:19.716Z,21.70
2018-10-19T06:55:57.223Z,21.70
2018-10-19T06:56:34.597Z,21.69
2018-10-19T06:57:12.165Z,21.70
2018-10-19T06:57:49.642Z,21.69
2018-10-19T06:58:27.051Z,21.69
2018-10-19T06:59:04.691Z,21.68
2018-10-19T06:59:42.161Z,21.69
2018-10-19T07:00:19.632Z,21.70
2018-10-19T07:00:57.247Z,21.69
2018-10-19T07:01:34.792Z,21.69
2018-10-19T07:02:12.353Z,21.69
2018-10-19T07:02:49.837Z,21.68
2018-10-19T07:03:27.367Z,21.69
2018-10-19T07:04:04.898Z,21.68
2018-10-19T07:04:42.374Z,21.69
2018-10-19T07:05:19.682Z,21.69
2018-10-19T07:05:57.309Z,21.69
2018-10-19T07:06:34.907Z,21.69
2018-10-19T07:07:12.298Z,21.69
2018-10-19T07:07:49.900Z,21.69
2018-10-19T07:08:27.346Z,21.69
2018-10-19T07:09:04.809Z,21.69
2018-10-19T07:09:42.368Z,21.69
2018-10-19T07:10:19.837Z,21.70
2018-10-19T07:10:57.322Z,21.69
2018-10-19T07:11:34.862Z,21.69
2018-10-19T07:12:12.387Z,21.69
2018-10-19T07:12:49.980Z,21.69
2018-10-19T07:13:27.378Z,21.68
2018-10-19T07:14:05.010Z,21.70
2018-10-19T07:14:42.458Z,21.69
2018-10-19T07:15:19.987Z,21.69
2018-10-19T07:15:57.591Z,21.70
2018-10-19T07:16:35.218Z,21.69
2018-10-19T07:17:12.687Z,21.70
2018-10-19T07:17:50.168Z,21.70
2018-10-19T07:18:27.612Z,21.69
2018-10-19T07:19:05.323Z,21.69
2018-10-19T07:19:42.713Z,21.69
2018-10-19T07:20:20.282Z,21.69
2018-10-19T07:20:57.837Z,21.70
2018-10-19T07:21:35.377Z,21.69
2018-10-19T07:22:12.863Z,21.70
2018-10-19T07:22:50.410Z,21.70
2018-10-19T07:23:27.954Z,21.70
2018-10-19T07:24:05.396Z,21.70
2018-10-19T07:24:43.096Z,21.70
2018-10-19T07:25:20.617Z,21.70
2018-10-19T07:25:58.161Z,21.70
2018-10-19T07:26:35.608Z,21.69
2018-10-19T07:27:13.002Z,21.70
2018-10-19T07:27:50.403Z,21.70
2018-10-19T07:28:28.013Z,21.70
2018-10-19T07:29:05.464Z,21.69
2018-10-19T07:29:43.021Z,21.69
2018-10-19T07:30:20.512Z,21.69
2018-10-19T07:30:57.949Z,21.70
2018-10-19T07:31:35.519Z,21.69
2018-10-19T07:32:13.091Z,21.70
2018-10-19T07:32:50.560Z,21.69
2018-10-19T07:33:28.201Z,21.69
2018-10-19T07:34:05.629Z,21.69
2018-10-19T07:34:43.134Z,21.70
2018-10-19T07:35:24.459Z,21.69
2018-10-19T07:36:01.921Z,21.69
2018-10-19T07:36:39.437Z,21.70
2018-10-19T07:37:16.976Z,21.70
2018-10-19T07:37:54.388Z,21.70
2018-10-19T07:38:31.951Z,21.70
2018-10-19T07:39:09.561Z,21.70
2018-10-19T07:39:47.025Z,21.70
2018-10-19T07:40:24.555Z,21.71
2018-10-19T07:41:44.844Z,21.70
2018-10-19T07:42:22.375Z,21.71
2018-10-19T07:42:59.905Z,21.70
2018-10-19T07:43:37.391Z,21.71
2018-10-19T07:44:14.993Z,21.70
2018-10-19T07:44:52.466Z,21.70
2018-10-19T07:45:30.009Z,21.71
2018-10-19T07:46:07.484Z,21.71
2018-10-19T07:46:44.990Z,21.71
2018-10-19T07:47:22.522Z,21.71
2018-10-19T07:48:00.130Z,21.70
2018-10-19T07:48:37.509Z,21.70
2018-10-19T07:49:15.002Z,21.71
2018-10-19T07:49:52.591Z,21.71
2018-10-19T07:50:30.201Z,21.70
2018-10-19T07:51:07.743Z,21.71
2018-10-19T07:51:45.279Z,21.70
2018-10-19T07:52:22.812Z,21.71
2018-10-19T07:53:00.364Z,21.70
2018-10-19T07:53:37.796Z,21.71
2018-10-19T07:54:15.230Z,21.71
2018-10-19T07:54:52.874Z,21.70
2018-10-19T07:55:30.365Z,21.70
2018-10-19T07:56:07.793Z,21.70
2018-10-19T07:56:45.473Z,21.70
2018-10-19T07:57:23.109Z,21.70
2018-10-19T07:58:00.817Z,21.70
2018-10-19T07:58:38.486Z,21.70
2018-10-19T07:59:16.136Z,21.71
2018-10-19T07:59:53.515Z,21.71
2018-10-19T08:00:31.051Z,21.70
2018-10-19T08:01:08.632Z,21.71
2018-10-19T08:01:46.006Z,21.70
2018-10-19T08:02:23.625Z,21.71
2018-10-19T08:03:01.178Z,21.71
2018-10-19T08:03:38.516Z,21.70
2018-10-19T08:04:16.051Z,21.72
2018-10-19T08:04:53.543Z,21.71
2018-10-19T08:05:30.992Z,21.70
2018-10-19T08:06:08.561Z,21.70
2018-10-19T08:06:45.967Z,21.71
2018-10-19T08:07:23.670Z,21.71
2018-10-19T08:08:01.367Z,21.71
2018-10-19T08:08:38.794Z,21.70
2018-10-19T08:09:16.332Z,21.71
2018-10-19T08:09:53.925Z,21.70